Latest Weather Observations for Southern Cross Airport

IDW60801

Issued at 10:53 pm WST Wednesday 20 June 2018 (issued every 10 minutes, with the page automatically refreshed every 10 minutes)

About weather observations | Map of weather stations | Latest weather observations for WA | Other Formats
Station Details ID: 012320 Name: SOUTHERN CROSS AIRFIELD Lat: -31.24 Lon: 119.36 Height: 347.4 m
Data from the previous 72 hours. | See also: Recent months at Southern Cross Airport
Date/Time
WST
Temp
°C
App
Temp
°C
Dew
Point
°C
Rel
Hum
%
Delta-T
°C
Wind Press
QNH
hPa
Press
MSL
hPa
Rain since
9am
mm
Dir  Spd
km/h
Gust
km/h
Spd
kts
Gust
kts
20/10:30pm 8.2 6.5 7.4 95 0.4 SSE 6 7 3 4 1029.1 1029.3 0.2
20/10:00pm 8.8 8.3 7.9 94 0.4 CALM 0 0 0 0 1029.0 1029.2 0.2
20/09:30pm 9.8 9.6 8.9 94 0.5 CALM 0 0 0 0 1029.1 1029.3 0.2
20/09:00pm 10.1 9.9 9.0 93 0.5 CALM 0 0 0 0 1029.1 1029.3 0.2
20/08:30pm 11.8 12.0 10.5 92 0.7 CALM 0 0 0 0 1029.3 1029.5 0.2
20/08:00pm 12.3 11.5 11.2 93 0.6 SSE 6 7 3 4 1029.0 1029.2 0.2
20/07:30pm 12.6 11.7 11.3 92 0.7 SSW 7 9 4 5 1028.8 1029.0 0.2
20/07:00pm 12.7 9.9 11.3 91 0.7 W 17 24 9 13 1028.5 1028.6 0.2
20/06:30pm 12.9 10.9 11.5 91 0.8 SSW 13 17 7 9 1028.4 1028.5 0.0
20/06:00pm 13.0 10.9 11.2 89 1.0 SSW 13 17 7 9 1028.0 1028.1 0.0
20/05:30pm 13.8 12.4 10.8 82 1.6 SW 9 11 5 6 1027.7 1027.8 0.0
20/05:00pm 14.2 12.7 10.6 79 1.9 SW 9 11 5 6 1027.4 1027.5 0.0
20/04:30pm 14.6 12.3 10.4 76 2.2 WSW 13 19 7 10 1027.3 1027.4 0.0
20/04:00pm 14.9 12.6 10.5 75 2.3 SW 13 17 7 9 1027.1 1027.2 0.0
20/03:30pm 14.9 12.6 10.5 75 2.4 SW 13 17 7 9 1027.2 1027.3 0.0
20/03:00pm 15.2 12.8 10.2 72 2.6 WSW 13 17 7 9 1027.2 1027.3 0.0
20/02:30pm 15.4 12.7 10.2 71 2.8 WNW 15 19 8 10 1027.2 1027.3 0.0
20/02:00pm 15.2 12.4 10.0 71 2.7 W 15 20 8 11 1027.2 1027.3 0.0
20/01:30pm 15.0 12.3 10.4 74 2.5 W 15 19 8 10 1027.4 1027.5 0.0
20/01:00pm 15.0 12.3 10.2 73 2.5 WNW 15 19 8 10 1027.5 1027.6 0.0
20/12:30pm 14.7 12.4 10.3 75 2.3 WNW 13 19 7 10 1027.8 1027.9 0.0
20/12:00pm 14.3 11.6 10.3 77 2.1 WSW 15 20 8 11 1028.3 1028.4 0.0
20/11:30am 14.0 12.8 10.4 79 1.9 N 7 13 4 7 1028.7 1028.9 0.0
20/11:00am 13.3 11.2 9.9 80 1.8 N 11 15 6 8 1029.0 1029.2 0.0
20/10:30am 12.0 9.5 9.7 86 1.2 N 13 17 7 9 1029.1 1029.3 0.0
20/10:00am 11.0 8.5 9.6 91 0.7 NNW 13 15 7 8 1029.3 1029.5 0.0
20/09:30am 9.5 8.1 8.7 95 0.4 N 6 7 3 4 1029.5 1029.7 0.0
20/09:00am 8.3 6.6 7.7 96 0.3 N 6 7 3 4 1029.6 1029.8 0.0
20/08:30am 7.1 6.3 6.7 97 0.2 CALM 0 0 0 0 1029.3 1029.5 0.0
20/08:00am 5.8 4.7 5.2 96 0.3 CALM 0 0 0 0 1029.1 1029.3 0.0
20/07:30am 5.0 3.8 4.4 96 0.3 CALM 0 0 0 0 1028.9 1029.1 0.0
20/07:00am 4.1 2.7 3.5 96 0.3 CALM 0 0 0 0 1028.7 1028.9 0.0
20/06:30am 3.3 1.7 2.6 95 0.3 CALM 0 0 0 0 1028.3 1028.4 0.0
20/06:00am 4.3 2.9 3.7 96 0.3 CALM 0 0 0 0 1028.1 1028.2 0.0
20/05:30am 4.3 1.8 3.6 95 0.3 N 6 7 3 4 1027.8 1027.9 0.0
20/05:00am 4.5 3.1 3.8 95 0.3 CALM 0 0 0 0 1027.7 1027.8 0.0
20/04:30am 4.5 3.1 3.8 95 0.3 CALM 0 0 0 0 1027.9 1028.0 0.0
20/04:00am 5.0 3.7 4.3 95 0.3 CALM 0 0 0 0 1027.8 1027.9 0.0
20/03:30am 4.7 2.2 4.0 95 0.3 N 6 7 3 4 1027.8 1027.9 0.0
20/03:00am 4.7 2.2 4.0 95 0.3 N 6 7 3 4 1027.7 1027.8 0.0
20/02:30am 5.1 2.7 4.4 95 0.3 N 6 7 3 4 1027.4 1027.5 0.0
20/02:00am 5.1 3.8 4.2 94 0.4 CALM 0 0 0 0 1027.5 1027.6 0.0
20/01:30am 5.9 4.8 5.0 94 0.4 CALM 0 0 0 0 1027.3 1027.4 0.0
20/01:00am 6.0 4.9 5.1 94 0.4 CALM 0 0 0 0 1027.4 1027.5 0.0
20/12:30am 6.0 4.9 5.1 94 0.4 CALM 0 0 0 0 1027.4 1027.5 0.0
20/12:00am 6.5 5.5 5.6 94 0.4 CALM 0 0 0 0 1027.5 1027.6 0.0
 
Date/Time
WST
Temp
°C
App
Temp
°C
Dew
Point
°C
Rel
Hum
%
Delta-T
°C
Wind Press
QNH
hPa
Press
MSL
hPa
Rain since
9am
mm
Dir  Spd
km/h
Gust
km/h
Spd
kts
Gust
kts
19/11:30pm 6.3 5.2 5.3 93 0.4 CALM 0 0 0 0 1027.6 1027.7 0.0
19/11:00pm 7.0 5.3 5.9 93 0.5 N 4 6 2 3 1027.7 1027.8 0.0
19/10:30pm 7.1 6.2 6.0 93 0.5 CALM 0 0 0 0 1027.7 1027.8 0.0
19/10:00pm 7.1 6.2 5.9 92 0.5 CALM 0 0 0 0 1027.6 1027.7 0.0
19/09:30pm 7.6 6.7 6.2 91 0.6 CALM 0 0 0 0 1027.8 1027.9 0.0
19/09:00pm 8.3 7.6 6.8 90 0.7 CALM 0 0 0 0 1027.5 1027.6 0.0
19/08:30pm 8.8 8.1 7.1 89 0.8 CALM 0 0 0 0 1027.4 1027.5 0.0
19/08:00pm 9.7 7.4 7.5 86 1.1 N 9 9 5 5 1027.4 1027.5 0.0
19/07:30pm 9.7 8.0 7.5 86 1.1 NW 6 7 3 4 1027.1 1027.2 0.0
19/07:00pm 10.6 8.7 7.7 82 1.4 WNW 7 9 4 5 1027.1 1027.2 0.0
19/06:30pm 11.8 10.0 7.9 77 1.9 WNW 7 9 4 5 1027.0 1027.1 0.0
19/06:00pm 12.8 11.1 8.3 74 2.3 WNW 7 9 4 5 1026.5 1026.7 0.0
19/05:30pm 13.3 10.8 8.0 70 2.7 W 11 15 6 8 1026.2 1026.4 0.0
19/05:00pm 13.7 10.7 7.9 68 2.9 W 13 19 7 10 1026.1 1026.2 0.0
19/04:30pm 14.0 10.3 7.8 66 3.1 W 17 20 9 11 1025.8 1025.9 0.0
19/04:00pm 13.9 11.4 8.1 68 2.9 WSW 11 19 6 10 1025.6 1025.7 0.0
19/03:30pm 14.0 11.0 7.8 66 3.1 WSW 13 17 7 9 1025.6 1025.7 0.0
19/03:00pm 14.1 10.7 7.6 65 3.2 W 15 19 8 10 1025.2 1025.3 0.0
19/02:30pm 14.7 10.9 7.7 63 3.5 WSW 17 22 9 12 1025.2 1025.3 0.0
19/02:00pm 13.6 10.0 8.2 70 2.7 WSW 17 22 9 12 1025.2 1025.3 0.0
19/01:30pm 14.0 10.3 8.0 67 3.0 W 17 24 9 13 1025.3 1025.4 0.0
19/01:00pm 13.9 9.8 7.9 67 3.0 W 19 24 10 13 1025.4 1025.5 0.0
19/12:30pm 14.3 10.1 8.3 67 3.1 W 20 28 11 15 1025.5 1025.6 0.0
19/12:00pm 13.3 9.2 8.0 70 2.7 W 19 28 10 15 1025.9 1026.0 0.0
19/11:30am 12.4 8.4 6.7 68 2.8 WSW 17 26 9 14 1026.2 1026.4 0.0
19/11:00am 12.5 8.6 7.0 69 2.7 W 17 24 9 13 1026.4 1026.6 0.0
19/10:30am 11.5 7.9 6.6 72 2.4 W 15 22 8 12 1026.5 1026.7 0.0
19/10:00am 10.9 7.7 7.0 77 1.9 W 13 17 7 9 1026.6 1026.8 0.0
19/09:30am 9.5 6.8 7.3 86 1.1 WNW 11 13 6 7 1026.6 1026.8 0.0
19/09:00am 7.7 5.3 6.8 94 0.4 NW 9 11 5 6 1026.2 1026.4 10.4
19/08:30am 6.4 4.1 5.8 96 0.3 NNW 7 9 4 5 1026.0 1026.1 10.4
19/08:00am 5.1 3.9 4.5 96 0.3 CALM 0 4 0 2 1025.6 1025.7 10.4
19/07:30am 3.1 0.4 2.5 96 0.2 N 6 6 3 3 1025.3 1025.4 10.4
19/07:00am 2.5 -0.3 1.8 95 0.3 N 6 9 3 5 1024.8 1024.9 10.4
19/06:30am 3.2 0.3 2.5 95 0.3 NNE 7 7 4 4 1024.5 1024.6 10.4
19/06:00am 3.6 0.8 2.9 95 0.3 NNE 7 9 4 5 1024.0 1024.1 10.4
19/05:30am 4.2 1.5 3.5 95 0.3 NNE 7 9 4 5 1023.8 1023.9 10.4
19/05:00am 3.5 0.6 2.8 95 0.3 NE 7 7 4 4 1023.6 1023.7 10.4
19/04:30am 3.4 0.7 2.5 94 0.4 N 6 7 3 4 1023.4 1023.5 10.4
19/04:00am 3.7 1.8 2.8 94 0.4 NW 2 6 1 3 1023.3 1023.4 10.4
19/03:30am 4.0 2.5 3.1 94 0.4 CALM 0 0 0 0 1023.1 1023.2 10.4
19/03:00am 4.1 1.5 3.1 93 0.4 WNW 6 7 3 4 1022.9 1023.0 10.4
19/02:30am 4.6 2.1 3.6 93 0.4 WNW 6 7 3 4 1022.8 1022.9 10.4
19/02:00am 5.1 2.5 4.1 93 0.4 WNW 7 9 4 5 1022.7 1022.8 10.4
19/01:30am 5.1 3.8 3.9 92 0.5 CALM 0 7 0 4 1022.6 1022.7 10.4
19/01:00am 5.4 3.3 3.9 90 0.6 NNW 4 7 2 4 1022.4 1022.5 10.4
19/12:30am 6.3 3.4 4.9 91 0.6 N 9 9 5 5 1022.4 1022.5 10.4
19/12:00am 5.5 2.1 4.0 90 0.6 WNW 11 11 6 6 1022.3 1022.4 10.4
 
Date/Time
WST
Temp
°C
App
Temp
°C
Dew
Point
°C
Rel
Hum
%
Delta-T
°C
Wind Press
QNH
hPa
Press
MSL
hPa
Rain since
9am
mm
Dir  Spd
km/h
Gust
km/h
Spd
kts
Gust
kts
18/11:30pm 6.8 4.0 5.3 90 0.7 WNW 9 11 5 6 1021.9 1022.0 10.4
18/11:00pm 6.9 4.1 5.1 88 0.8 WNW 9 11 5 6 1021.7 1021.8 10.4
18/10:30pm 7.6 4.8 5.1 84 1.1 WNW 9 9 5 5 1021.7 1021.8 10.4
18/10:00pm 8.2 5.5 5.7 84 1.1 W 9 13 5 7 1021.2 1021.2 10.4
18/09:30pm 8.6 6.0 6.1 84 1.2 W 9 11 5 6 1021.2 1021.2 10.4
18/09:00pm 9.0 6.1 6.4 84 1.2 WSW 11 15 6 8 1020.8 1020.8 10.4
18/08:30pm 9.5 7.0 6.6 82 1.4 WSW 9 13 5 7 1020.8 1020.8 10.4
18/08:00pm 9.8 6.9 6.7 81 1.5 WSW 11 15 6 8 1020.5 1020.6 10.4
18/07:30pm 10.3 7.4 6.5 77 1.8 W 11 15 6 8 1019.7 1019.8 10.4
18/07:00pm 10.8 7.5 6.6 75 2.0 WSW 13 17 7 9 1019.7 1019.8 10.4
18/06:30pm 11.3 7.3 6.6 73 2.3 WSW 17 20 9 11 1019.2 1019.3 10.4
18/06:00pm 11.8 7.4 6.7 71 2.5 WSW 19 24 10 13 1018.2 1018.2 10.4
18/05:30pm 12.3 8.1 7.4 72 2.4 WSW 19 24 10 13 1018.3 1018.3 10.4
18/05:00pm 12.6 8.4 7.3 70 2.6 W 19 24 10 13 1017.3 1017.4 10.4
18/04:30pm 13.0 8.7 7.0 67 3.0 W 19 26 10 14 1017.5 1017.6 10.4
18/04:00pm 13.5 8.8 7.9 69 2.8 W 22 33 12 18 1017.2 1017.3 10.4
18/03:30pm 13.4 8.7 9.3 76 2.1 W 24 32 13 17 1016.5 1016.6 10.4
18/03:00pm 13.1 9.7 10.6 85 1.3 W 19 24 10 13 1016.2 1016.2 10.4
18/02:30pm 12.7 10.5 10.9 89 1.0 W 13 20 7 11 1015.7 1015.7 10.4
18/02:00pm 12.0 9.6 10.2 89 0.9 W 13 17 7 9 1015.6 1015.6 10.4
18/01:30pm 11.7 9.3 9.9 89 0.9 W 13 19 7 10 1015.6 1015.6 10.2
18/01:00pm 11.5 6.1 9.4 87 1.1 W 28 39 15 21 1015.9 1015.9 9.8
18/12:52pm 11.9 6.6 10.0 88 1.0 W 28 39 15 21 1016.1 1016.1 9.4
18/12:30pm 12.2 9.3 10.9 92 0.7 WSW 17 24 9 13 1015.9 1015.9 8.6
18/12:00pm 12.2 8.2 10.6 90 0.8 W 22 33 12 18 1015.5 1015.5 6.8
18/11:30am 12.8 8.4 11.7 93 0.6 WNW 26 41 14 22 1015.8 1015.8 6.0
18/11:00am 12.4 8.3 11.3 93 0.6 NW 24 33 13 18 1015.7 1015.7 4.8
18/10:30am 12.3 8.4 10.9 91 0.7 NNW 22 28 12 15 1015.8 1015.8 1.8
18/10:00am 13.1 8.4 9.4 78 1.9 NNW 24 32 13 17 1015.3 1015.3 0.2
18/09:30am 14.1 9.7 9.1 72 2.6 NNW 22 30 12 16 1015.5 1015.5 0.0
18/09:00am 13.6 8.4 8.9 73 2.4 N 26 33 14 18 1015.4 1015.4 -
18/08:30am 14.0 7.7 7.5 65 3.3 N 30 41 16 22 1014.9 1014.9 -
18/08:00am 15.4 10.8 6.4 55 4.4 N 20 28 11 15 1015.2 1015.2 -
18/07:30am 15.8 10.5 6.8 55 4.5 NNW 24 30 13 16 1014.9 1014.9 -
18/07:00am 16.2 9.2 5.8 50 5.1 N 32 37 17 20 1014.7 1014.7 -
18/06:30am 16.2 8.7 1.1 36 6.7 N 30 43 16 23 1014.7 1014.7 -
18/06:00am 16.4 9.1 0.1 33 7.1 N 28 35 15 19 1014.5 1014.6 -
18/05:30am 16.5 8.8 0.2 33 7.1 N 30 37 16 20 1014.4 1014.5 -
18/05:00am 16.7 8.4 -0.1 32 7.3 N 33 48 18 26 1014.1 1014.2 -
18/04:30am 16.8 9.4 -0.4 31 7.5 N 28 37 15 20 1014.4 1014.5 -
18/04:00am 16.7 10.1 -0.1 32 7.3 N 24 35 13 19 1014.4 1014.5 -
18/03:30am 16.1 10.4 0.3 34 6.9 N 20 28 11 15 1014.4 1014.5 -
18/03:00am 16.1 10.0 0.3 34 6.9 NNE 22 30 12 16 1014.8 1014.8 -
18/02:30am 16.2 10.1 0.7 35 6.9 NNE 22 30 12 16 1015.2 1015.2 -
18/02:00am 15.9 10.4 1.6 38 6.4 N 20 26 11 14 1015.6 1015.6 -
18/01:30am 15.3 10.4 2.1 41 6.0 N 17 24 9 13 1016.1 1016.1 -
18/01:00am 15.4 10.0 2.2 41 6.0 NNE 20 26 11 14 1016.3 1016.3 -
18/12:30am 14.8 9.6 2.4 43 5.6 NNE 19 24 10 13 1016.3 1016.3 -
18/12:00am 15.0 9.6 1.5 40 6.0 NNE 19 24 10 13 1016.7 1016.8 -
 
Date/Time
WST
Temp
°C
App
Temp
°C
Dew
Point
°C
Rel
Hum
%
Delta-T
°C
Wind Press
QNH
hPa
Press
MSL
hPa
Rain since
9am
mm
Dir  Spd
km/h
Gust
km/h
Spd
kts
Gust
kts
17/11:30pm 15.0 9.3 0.8 38 6.2 NE 20 24 11 13 1016.9 1017.0 -
17/11:00pm 15.4 9.9 0.8 37 6.4 NNE 19 24 10 13 1017.4 1017.5 -

Other Formats:

Comma delimited format used in spreadsheet applications
http://www.bom.gov.au/fwo/IDW60801/IDW60801.95634.axf

JavaScript Object Notation format (JSON) in row-major order
http://www.bom.gov.au/fwo/IDW60801/IDW60801.95634.json